sensor_id;sensor_type;location;lat;lon;timestamp;P1;durP1;ratioP1;P2;durP2;ratioP2
41709;SDS011;59402;48.396;-4.472;2022-12-24T00:00:13;55.45;;;7.95;;
41709;SDS011;59402;48.396;-4.472;2022-12-24T00:02:39;53.38;;;8.30;;
41709;SDS011;59402;48.396;-4.472;2022-12-24T00:05:04;64.22;;;10.02;;
41709;SDS011;59402;48.396;-4.472;2022-12-24T00:07:30;63.92;;;8.43;;
41709;SDS011;59402;48.396;-4.472;2022-12-24T00:09:55;53.20;;;8.07;;
41709;SDS011;59402;48.396;-4.472;2022-12-24T00:12:20;51.63;;;8.98;;
41709;SDS011;59402;48.396;-4.472;2022-12-24T00:14:46;53.20;;;8.23;;
41709;SDS011;59402;48.396;-4.472;2022-12-24T00:17:11;50.50;;;8.38;;
41709;SDS011;59402;48.396;-4.472;2022-12-24T00:19:36;50.45;;;7.40;;
41709;SDS011;59402;48.396;-4.472;2022-12-24T00:22:02;51.38;;;8.38;;
41709;SDS011;59402;48.396;-4.472;2022-12-24T00:24:27;53.05;;;8.25;;
41709;SDS011;59402;48.396;-4.472;2022-12-24T00:26:52;61.05;;;7.82;;
41709;SDS011;59402;48.396;-4.472;2022-12-24T00:29:18;50.30;;;8.27;;
41709;SDS011;59402;48.396;-4.472;2022-12-24T00:31:43;51.88;;;8.27;;
41709;SDS011;59402;48.396;-4.472;2022-12-24T00:34:09;50.05;;;8.73;;
41709;SDS011;59402;48.396;-4.472;2022-12-24T00:36:34;51.78;;;8.57;;
41709;SDS011;59402;48.396;-4.472;2022-12-24T00:38:59;52.10;;;8.25;;
41709;SDS011;59402;48.396;-4.472;2022-12-24T00:41:25;54.28;;;9.38;;
41709;SDS011;59402;48.396;-4.472;2022-12-24T00:46:17;55.42;;;8.15;;
41709;SDS011;59402;48.396;-4.472;2022-12-24T00:48:43;51.95;;;8.23;;
41709;SDS011;59402;48.396;-4.472;2022-12-24T00:51:08;63.22;;;9.05;;
41709;SDS011;59402;48.396;-4.472;2022-12-24T00:53:33;59.50;;;8.52;;
41709;SDS011;59402;48.396;-4.472;2022-12-24T00:55:59;56.50;;;8.68;;
41709;SDS011;59402;48.396;-4.472;2022-12-24T00:58:24;64.15;;;9.15;;
41709;SDS011;59402;48.396;-4.472;2022-12-24T01:00:49;71.53;;;9.90;;
41709;SDS011;59402;48.396;-4.472;2022-12-24T01:03:15;66.93;;;10.02;;
41709;SDS011;59402;48.396;-4.472;2022-12-24T01:05:40;77.75;;;11.75;;
41709;SDS011;59402;48.396;-4.472;2022-12-24T01:08:05;68.88;;;10.77;;
41709;SDS011;59402;48.396;-4.472;2022-12-24T01:10:31;75.22;;;11.80;;
41709;SDS011;59402;48.396;-4.472;2022-12-24T01:12:56;74.13;;;12.13;;
41709;SDS011;59402;48.396;-4.472;2022-12-24T01:15:24;76.45;;;11.15;;
41709;SDS011;59402;48.396;-4.472;2022-12-24T01:17:50;74.80;;;10.32;;
41709;SDS011;59402;48.396;-4.472;2022-12-24T01:20:15;77.10;;;10.32;;
41709;SDS011;59402;48.396;-4.472;2022-12-24T01:22:41;78.05;;;11.13;;
41709;SDS011;59402;48.396;-4.472;2022-12-24T01:25:06;67.80;;;10.00;;
41709;SDS011;59402;48.396;-4.472;2022-12-24T01:27:32;74.65;;;10.68;;
41709;SDS011;59402;48.396;-4.472;2022-12-24T01:29:57;92.20;;;12.98;;
41709;SDS011;59402;48.396;-4.472;2022-12-24T01:32:22;74.15;;;11.60;;
41709;SDS011;59402;48.396;-4.472;2022-12-24T01:34:48;87.28;;;9.73;;
41709;SDS011;59402;48.396;-4.472;2022-12-24T01:37:13;88.25;;;10.80;;
41709;SDS011;59402;48.396;-4.472;2022-12-24T01:39:38;68.30;;;10.20;;
41709;SDS011;59402;48.396;-4.472;2022-12-24T01:42:21;72.43;;;10.82;;
41709;SDS011;59402;48.396;-4.472;2022-12-24T01:48:39;87.43;;;11.43;;
41709;SDS011;59402;48.396;-4.472;2022-12-24T01:53:46;76.82;;;11.65;;
41709;SDS011;59402;48.396;-4.472;2022-12-24T01:56:12;84.25;;;11.23;;
41709;SDS011;59402;48.396;-4.472;2022-12-24T01:58:39;82.53;;;12.13;;
41709;SDS011;59402;48.396;-4.472;2022-12-24T02:01:05;66.83;;;9.33;;
41709;SDS011;59402;48.396;-4.472;2022-12-24T02:03:31;76.45;;;11.13;;
41709;SDS011;59402;48.396;-4.472;2022-12-24T02:05:57;77.93;;;10.80;;
41709;SDS011;59402;48.396;-4.472;2022-12-24T02:08:23;73.60;;;10.35;;
41709;SDS011;59402;48.396;-4.472;2022-12-24T02:10:49;74.18;;;10.68;;
41709;SDS011;59402;48.396;-4.472;2022-12-24T02:13:15;81.70;;;11.57;;
41709;SDS011;59402;48.396;-4.472;2022-12-24T02:15:44;63.57;;;9.57;;
41709;SDS011;59402;48.396;-4.472;2022-12-24T02:18:27;69.72;;;10.57;;
41709;SDS011;59402;48.396;-4.472;2022-12-24T02:21:00;71.57;;;10.00;;
41709;SDS011;59402;48.396;-4.472;2022-12-24T02:32:02;78.78;;;11.40;;
41709;SDS011;59402;48.396;-4.472;2022-12-24T02:33:57;76.47;;;11.18;;
41709;SDS011;59402;48.396;-4.472;2022-12-24T02:38:50;78.40;;;9.95;;
41709;SDS011;59402;48.396;-4.472;2022-12-24T02:41:22;81.93;;;10.60;;
41709;SDS011;59402;48.396;-4.472;2022-12-24T02:43:49;78.97;;;10.70;;
41709;SDS011;59402;48.396;-4.472;2022-12-24T02:46:20;74.32;;;12.05;;
41709;SDS011;59402;48.396;-4.472;2022-12-24T02:48:46;83.30;;;10.93;;
41709;SDS011;59402;48.396;-4.472;2022-12-24T02:51:12;73.88;;;9.40;;
41709;SDS011;59402;48.396;-4.472;2022-12-24T02:53:38;70.70;;;11.43;;
41709;SDS011;59402;48.396;-4.472;2022-12-24T02:57:05;75.70;;;10.65;;
41709;SDS011;59402;48.396;-4.472;2022-12-24T03:06:43;61.28;;;10.18;;
41709;SDS011;59402;48.396;-4.472;2022-12-24T03:14:13;42.17;;;6.82;;
41709;SDS011;59402;48.396;-4.472;2022-12-24T03:16:40;25.35;;;4.75;;
41709;SDS011;59402;48.396;-4.472;2022-12-24T03:19:06;22.33;;;3.35;;
41709;SDS011;59402;48.396;-4.472;2022-12-24T03:21:34;22.38;;;3.25;;
41709;SDS011;59402;48.396;-4.472;2022-12-24T03:24:02;16.65;;;2.58;;
41709;SDS011;59402;48.396;-4.472;2022-12-24T03:26:27;15.90;;;2.53;;
41709;SDS011;59402;48.396;-4.472;2022-12-24T03:28:53;12.45;;;2.25;;
41709;SDS011;59402;48.396;-4.472;2022-12-24T03:31:19;16.90;;;2.92;;
41709;SDS011;59402;48.396;-4.472;2022-12-24T03:33:45;19.67;;;3.53;;
41709;SDS011;59402;48.396;-4.472;2022-12-24T03:36:10;18.60;;;3.08;;
41709;SDS011;59402;48.396;-4.472;2022-12-24T03:38:36;23.50;;;3.42;;
41709;SDS011;59402;48.396;-4.472;2022-12-24T03:41:01;27.48;;;4.28;;
41709;SDS011;59402;48.396;-4.472;2022-12-24T03:43:26;31.17;;;5.03;;
41709;SDS011;59402;48.396;-4.472;2022-12-24T03:45:52;41.22;;;5.32;;
41709;SDS011;59402;48.396;-4.472;2022-12-24T03:48:17;40.50;;;6.50;;
41709;SDS011;59402;48.396;-4.472;2022-12-24T03:50:42;58.75;;;8.50;;
41709;SDS011;59402;48.396;-4.472;2022-12-24T03:53:08;50.97;;;8.50;;
41709;SDS011;59402;48.396;-4.472;2022-12-24T03:55:33;64.15;;;9.80;;
41709;SDS011;59402;48.396;-4.472;2022-12-24T03:57:58;64.85;;;9.20;;
41709;SDS011;59402;48.396;-4.472;2022-12-24T04:00:24;66.35;;;9.00;;
41709;SDS011;59402;48.396;-4.472;2022-12-24T04:02:49;81.30;;;10.57;;
41709;SDS011;59402;48.396;-4.472;2022-12-24T04:05:16;70.07;;;9.00;;
41709;SDS011;59402;48.396;-4.472;2022-12-24T04:07:42;83.13;;;10.45;;
41709;SDS011;59402;48.396;-4.472;2022-12-24T04:10:07;67.65;;;9.88;;
41709;SDS011;59402;48.396;-4.472;2022-12-24T04:12:33;58.70;;;9.48;;
41709;SDS011;59402;48.396;-4.472;2022-12-24T04:14:59;69.53;;;11.80;;
41709;SDS011;59402;48.396;-4.472;2022-12-24T04:17:24;67.90;;;9.93;;
41709;SDS011;59402;48.396;-4.472;2022-12-24T04:19:49;72.90;;;11.02;;
41709;SDS011;59402;48.396;-4.472;2022-12-24T04:22:15;76.63;;;10.07;;
41709;SDS011;59402;48.396;-4.472;2022-12-24T04:24:40;82.03;;;11.23;;
41709;SDS011;59402;48.396;-4.472;2022-12-24T04:27:05;70.50;;;10.23;;
41709;SDS011;59402;48.396;-4.472;2022-12-24T04:29:31;71.63;;;10.30;;
41709;SDS011;59402;48.396;-4.472;2022-12-24T04:31:56;72.03;;;9.13;;
41709;SDS011;59402;48.396;-4.472;2022-12-24T04:34:21;66.25;;;8.68;;
41709;SDS011;59402;48.396;-4.472;2022-12-24T04:36:47;63.15;;;9.35;;
41709;SDS011;59402;48.396;-4.472;2022-12-24T04:39:12;70.80;;;9.85;;
41709;SDS011;59402;48.396;-4.472;2022-12-24T04:41:37;74.53;;;10.02;;
41709;SDS011;59402;48.396;-4.472;2022-12-24T04:44:02;68.72;;;10.85;;
41709;SDS011;59402;48.396;-4.472;2022-12-24T04:46:28;69.18;;;9.90;;
41709;SDS011;59402;48.396;-4.472;2022-12-24T04:48:57;68.38;;;9.43;;
41709;SDS011;59402;48.396;-4.472;2022-12-24T04:51:23;62.20;;;9.50;;
41709;SDS011;59402;48.396;-4.472;2022-12-24T04:53:49;70.25;;;10.77;;
41709;SDS011;59402;48.396;-4.472;2022-12-24T04:56:17;70.97;;;9.48;;
41709;SDS011;59402;48.396;-4.472;2022-12-24T04:58:43;73.15;;;9.13;;
41709;SDS011;59402;48.396;-4.472;2022-12-24T05:01:11;64.03;;;9.25;;
41709;SDS011;59402;48.396;-4.472;2022-12-24T05:03:37;79.30;;;9.88;;
41709;SDS011;59402;48.396;-4.472;2022-12-24T05:06:03;76.85;;;8.90;;
41709;SDS011;59402;48.396;-4.472;2022-12-24T05:08:29;71.07;;;8.88;;
41709;SDS011;59402;48.396;-4.472;2022-12-24T05:10:57;72.28;;;9.18;;
41709;SDS011;59402;48.396;-4.472;2022-12-24T05:13:24;74.22;;;10.18;;
41709;SDS011;59402;48.396;-4.472;2022-12-24T05:15:49;63.10;;;8.57;;
41709;SDS011;59402;48.396;-4.472;2022-12-24T05:18:14;51.17;;;8.77;;
41709;SDS011;59402;48.396;-4.472;2022-12-24T05:20:40;79.13;;;10.35;;
41709;SDS011;59402;48.396;-4.472;2022-12-24T05:23:05;67.30;;;9.80;;
41709;SDS011;59402;48.396;-4.472;2022-12-24T05:25:49;74.75;;;9.77;;
41709;SDS011;59402;48.396;-4.472;2022-12-24T05:28:33;70.03;;;9.38;;
41709;SDS011;59402;48.396;-4.472;2022-12-24T05:30:58;66.75;;;9.80;;
41709;SDS011;59402;48.396;-4.472;2022-12-24T05:33:24;66.35;;;8.77;;
41709;SDS011;59402;48.396;-4.472;2022-12-24T05:35:50;75.32;;;10.02;;
41709;SDS011;59402;48.396;-4.472;2022-12-24T05:38:15;60.88;;;8.32;;
41709;SDS011;59402;48.396;-4.472;2022-12-24T05:40:40;78.78;;;10.07;;
41709;SDS011;59402;48.396;-4.472;2022-12-24T05:43:06;71.95;;;9.35;;
41709;SDS011;59402;48.396;-4.472;2022-12-24T05:45:31;73.95;;;9.68;;
41709;SDS011;59402;48.396;-4.472;2022-12-24T05:47:56;61.55;;;9.30;;
41709;SDS011;59402;48.396;-4.472;2022-12-24T05:50:22;64.95;;;8.88;;
41709;SDS011;59402;48.396;-4.472;2022-12-24T05:53:02;67.18;;;9.02;;
41709;SDS011;59402;48.396;-4.472;2022-12-24T05:55:28;61.60;;;8.93;;
41709;SDS011;59402;48.396;-4.472;2022-12-24T05:57:53;72.55;;;8.70;;
41709;SDS011;59402;48.396;-4.472;2022-12-24T06:00:19;58.25;;;7.20;;
41709;SDS011;59402;48.396;-4.472;2022-12-24T06:02:44;66.45;;;10.07;;
41709;SDS011;59402;48.396;-4.472;2022-12-24T06:05:09;63.55;;;8.43;;
41709;SDS011;59402;48.396;-4.472;2022-12-24T06:07:35;58.80;;;7.97;;
41709;SDS011;59402;48.396;-4.472;2022-12-24T06:10:00;65.32;;;8.52;;
41709;SDS011;59402;48.396;-4.472;2022-12-24T06:12:25;54.35;;;8.40;;
41709;SDS011;59402;48.396;-4.472;2022-12-24T06:14:51;60.97;;;8.70;;
41709;SDS011;59402;48.396;-4.472;2022-12-24T06:17:16;54.60;;;7.93;;
41709;SDS011;59402;48.396;-4.472;2022-12-24T06:19:41;52.53;;;7.75;;
41709;SDS011;59402;48.396;-4.472;2022-12-24T06:22:07;64.10;;;8.55;;
41709;SDS011;59402;48.396;-4.472;2022-12-24T06:24:32;56.88;;;8.70;;
41709;SDS011;59402;48.396;-4.472;2022-12-24T06:26:57;60.72;;;8.60;;
41709;SDS011;59402;48.396;-4.472;2022-12-24T06:29:23;61.58;;;8.45;;
41709;SDS011;59402;48.396;-4.472;2022-12-24T06:31:48;61.80;;;7.68;;
41709;SDS011;59402;48.396;-4.472;2022-12-24T06:34:13;62.75;;;8.73;;
41709;SDS011;59402;48.396;-4.472;2022-12-24T06:36:39;59.90;;;7.80;;
41709;SDS011;59402;48.396;-4.472;2022-12-24T06:39:04;62.00;;;9.05;;
41709;SDS011;59402;48.396;-4.472;2022-12-24T06:41:30;73.53;;;8.95;;
41709;SDS011;59402;48.396;-4.472;2022-12-24T06:43:55;65.78;;;7.85;;
41709;SDS011;59402;48.396;-4.472;2022-12-24T06:46:20;69.82;;;8.13;;
41709;SDS011;59402;48.396;-4.472;2022-12-24T06:48:46;67.22;;;8.77;;
41709;SDS011;59402;48.396;-4.472;2022-12-24T06:51:12;69.65;;;9.23;;
41709;SDS011;59402;48.396;-4.472;2022-12-24T06:53:37;76.80;;;9.25;;
41709;SDS011;59402;48.396;-4.472;2022-12-24T06:58:28;69.80;;;9.23;;
41709;SDS011;59402;48.396;-4.472;2022-12-24T07:00:54;77.13;;;10.10;;
41709;SDS011;59402;48.396;-4.472;2022-12-24T07:03:19;78.22;;;9.32;;
41709;SDS011;59402;48.396;-4.472;2022-12-24T07:05:44;75.60;;;10.40;;
41709;SDS011;59402;48.396;-4.472;2022-12-24T07:08:10;64.60;;;9.60;;
41709;SDS011;59402;48.396;-4.472;2022-12-24T07:10:35;80.47;;;8.80;;
41709;SDS011;59402;48.396;-4.472;2022-12-24T07:13:00;69.88;;;8.73;;
41709;SDS011;59402;48.396;-4.472;2022-12-24T07:15:26;81.07;;;10.00;;
41709;SDS011;59402;48.396;-4.472;2022-12-24T07:17:51;77.20;;;9.63;;
41709;SDS011;59402;48.396;-4.472;2022-12-24T07:20:16;90.82;;;11.45;;
41709;SDS011;59402;48.396;-4.472;2022-12-24T07:22:42;66.55;;;9.48;;
41709;SDS011;59402;48.396;-4.472;2022-12-24T07:25:07;70.65;;;8.18;;
41709;SDS011;59402;48.396;-4.472;2022-12-24T07:27:34;66.05;;;8.82;;
41709;SDS011;59402;48.396;-4.472;2022-12-24T07:29:59;69.72;;;8.73;;
41709;SDS011;59402;48.396;-4.472;2022-12-24T07:32:25;74.03;;;8.70;;
41709;SDS011;59402;48.396;-4.472;2022-12-24T07:34:50;70.45;;;8.63;;
41709;SDS011;59402;48.396;-4.472;2022-12-24T07:37:15;72.93;;;8.68;;
41709;SDS011;59402;48.396;-4.472;2022-12-24T07:39:41;75.25;;;9.35;;
41709;SDS011;59402;48.396;-4.472;2022-12-24T07:42:06;79.30;;;9.02;;
41709;SDS011;59402;48.396;-4.472;2022-12-24T07:46:59;68.13;;;9.38;;
41709;SDS011;59402;48.396;-4.472;2022-12-24T07:49:24;72.07;;;9.02;;
41709;SDS011;59402;48.396;-4.472;2022-12-24T07:51:50;86.65;;;10.45;;
41709;SDS011;59402;48.396;-4.472;2022-12-24T07:54:15;64.55;;;8.40;;
41709;SDS011;59402;48.396;-4.472;2022-12-24T07:56:41;66.25;;;9.45;;
41709;SDS011;59402;48.396;-4.472;2022-12-24T07:59:06;72.28;;;9.63;;
41709;SDS011;59402;48.396;-4.472;2022-12-24T08:01:31;72.13;;;9.77;;
41709;SDS011;59402;48.396;-4.472;2022-12-24T08:03:57;81.15;;;9.50;;
41709;SDS011;59402;48.396;-4.472;2022-12-24T08:06:22;61.58;;;8.27;;
41709;SDS011;59402;48.396;-4.472;2022-12-24T08:08:47;85.05;;;9.50;;
41709;SDS011;59402;48.396;-4.472;2022-12-24T08:11:13;67.13;;;8.68;;
41709;SDS011;59402;48.396;-4.472;2022-12-24T08:13:38;79.40;;;8.50;;
41709;SDS011;59402;48.396;-4.472;2022-12-24T08:16:04;70.97;;;9.73;;
41709;SDS011;59402;48.396;-4.472;2022-12-24T08:18:29;63.63;;;7.82;;
41709;SDS011;59402;48.396;-4.472;2022-12-24T08:20:55;69.68;;;8.73;;
41709;SDS011;59402;48.396;-4.472;2022-12-24T08:23:20;72.03;;;9.30;;
41709;SDS011;59402;48.396;-4.472;2022-12-24T08:25:46;75.30;;;10.75;;
41709;SDS011;59402;48.396;-4.472;2022-12-24T08:28:12;57.70;;;7.38;;
41709;SDS011;59402;48.396;-4.472;2022-12-24T08:30:37;59.25;;;7.60;;
41709;SDS011;59402;48.396;-4.472;2022-12-24T08:33:03;45.88;;;5.65;;
41709;SDS011;59402;48.396;-4.472;2022-12-24T08:35:28;28.50;;;4.53;;
41709;SDS011;59402;48.396;-4.472;2022-12-24T08:37:53;30.40;;;4.45;;
41709;SDS011;59402;48.396;-4.472;2022-12-24T08:40:19;27.83;;;4.38;;
41709;SDS011;59402;48.396;-4.472;2022-12-24T08:42:44;27.67;;;4.65;;
41709;SDS011;59402;48.396;-4.472;2022-12-24T08:45:10;32.95;;;4.80;;
41709;SDS011;59402;48.396;-4.472;2022-12-24T08:47:36;27.05;;;5.05;;
41709;SDS011;59402;48.396;-4.472;2022-12-24T08:50:02;29.17;;;4.68;;
41709;SDS011;59402;48.396;-4.472;2022-12-24T08:52:27;26.65;;;4.22;;
41709;SDS011;59402;48.396;-4.472;2022-12-24T08:54:52;37.50;;;5.65;;
41709;SDS011;59402;48.396;-4.472;2022-12-24T08:57:18;29.00;;;4.63;;
41709;SDS011;59402;48.396;-4.472;2022-12-24T08:59:44;31.88;;;4.43;;
41709;SDS011;59402;48.396;-4.472;2022-12-24T09:02:09;29.45;;;4.15;;
41709;SDS011;59402;48.396;-4.472;2022-12-24T09:04:36;27.48;;;5.13;;
41709;SDS011;59402;48.396;-4.472;2022-12-24T09:07:03;28.92;;;4.03;;
41709;SDS011;59402;48.396;-4.472;2022-12-24T09:09:28;28.90;;;4.72;;
41709;SDS011;59402;48.396;-4.472;2022-12-24T09:11:54;28.67;;;4.65;;
41709;SDS011;59402;48.396;-4.472;2022-12-24T09:14:19;37.60;;;5.82;;
41709;SDS011;59402;48.396;-4.472;2022-12-24T09:16:44;31.85;;;5.10;;
41709;SDS011;59402;48.396;-4.472;2022-12-24T09:19:10;35.17;;;4.70;;
41709;SDS011;59402;48.396;-4.472;2022-12-24T09:21:35;33.47;;;5.35;;
41709;SDS011;59402;48.396;-4.472;2022-12-24T09:24:02;33.83;;;4.65;;
41709;SDS011;59402;48.396;-4.472;2022-12-24T09:26:27;30.20;;;4.38;;
41709;SDS011;59402;48.396;-4.472;2022-12-24T09:28:56;36.75;;;4.85;;
41709;SDS011;59402;48.396;-4.472;2022-12-24T09:31:21;33.05;;;4.35;;
41709;SDS011;59402;48.396;-4.472;2022-12-24T09:33:47;28.63;;;4.40;;
41709;SDS011;59402;48.396;-4.472;2022-12-24T09:36:13;33.17;;;4.60;;
41709;SDS011;59402;48.396;-4.472;2022-12-24T09:38:39;34.78;;;4.82;;
41709;SDS011;59402;48.396;-4.472;2022-12-24T09:41:12;35.28;;;5.18;;
41709;SDS011;59402;48.396;-4.472;2022-12-24T09:43:37;29.90;;;4.82;;
41709;SDS011;59402;48.396;-4.472;2022-12-24T09:48:29;34.75;;;4.30;;
41709;SDS011;59402;48.396;-4.472;2022-12-24T09:51:00;31.30;;;5.70;;
41709;SDS011;59402;48.396;-4.472;2022-12-24T09:53:34;27.85;;;5.25;;
41709;SDS011;59402;48.396;-4.472;2022-12-24T09:56:02;28.35;;;4.68;;
41709;SDS011;59402;48.396;-4.472;2022-12-24T10:00:53;23.95;;;4.05;;
41709;SDS011;59402;48.396;-4.472;2022-12-24T10:03:20;22.30;;;3.40;;
41709;SDS011;59402;48.396;-4.472;2022-12-24T10:06:07;22.85;;;3.15;;
41709;SDS011;59402;48.396;-4.472;2022-12-24T10:11:35;23.27;;;4.57;;
41709;SDS011;59402;48.396;-4.472;2022-12-24T10:23:59;23.38;;;3.70;;
41709;SDS011;59402;48.396;-4.472;2022-12-24T10:26:29;23.67;;;4.13;;
41709;SDS011;59402;48.396;-4.472;2022-12-24T10:28:59;20.45;;;3.10;;
41709;SDS011;59402;48.396;-4.472;2022-12-24T10:31:27;20.65;;;3.60;;
41709;SDS011;59402;48.396;-4.472;2022-12-24T10:33:55;22.85;;;3.72;;
41709;SDS011;59402;48.396;-4.472;2022-12-24T10:36:23;25.50;;;3.28;;
41709;SDS011;59402;48.396;-4.472;2022-12-24T10:38:49;16.95;;;3.53;;
41709;SDS011;59402;48.396;-4.472;2022-12-24T10:41:15;21.63;;;3.35;;
41709;SDS011;59402;48.396;-4.472;2022-12-24T10:43:41;19.23;;;3.05;;
41709;SDS011;59402;48.396;-4.472;2022-12-24T10:46:49;21.05;;;3.35;;
41709;SDS011;59402;48.396;-4.472;2022-12-24T10:49:11;22.27;;;3.17;;
41709;SDS011;59402;48.396;-4.472;2022-12-24T10:54:17;19.30;;;2.63;;
41709;SDS011;59402;48.396;-4.472;2022-12-24T10:56:47;16.40;;;2.90;;
41709;SDS011;59402;48.396;-4.472;2022-12-24T11:01:50;17.63;;;2.83;;
41709;SDS011;59402;48.396;-4.472;2022-12-24T11:04:16;23.15;;;3.40;;
41709;SDS011;59402;48.396;-4.472;2022-12-24T11:11:58;26.90;;;3.63;;
41709;SDS011;59402;48.396;-4.472;2022-12-24T11:14:24;24.90;;;3.88;;
41709;SDS011;59402;48.396;-4.472;2022-12-24T11:16:52;14.85;;;2.80;;
41709;SDS011;59402;48.396;-4.472;2022-12-24T11:19:19;18.75;;;2.72;;
41709;SDS011;59402;48.396;-4.472;2022-12-24T11:21:44;22.43;;;3.20;;
41709;SDS011;59402;48.396;-4.472;2022-12-24T11:26:47;19.60;;;2.75;;
41709;SDS011;59402;48.396;-4.472;2022-12-24T11:31:42;14.93;;;3.20;;
41709;SDS011;59402;48.396;-4.472;2022-12-24T11:34:29;21.83;;;3.10;;
41709;SDS011;59402;48.396;-4.472;2022-12-24T11:37:38;14.75;;;3.28;;
41709;SDS011;59402;48.396;-4.472;2022-12-24T11:39:39;22.42;;;3.60;;
41709;SDS011;59402;48.396;-4.472;2022-12-24T11:42:05;23.58;;;3.10;;
41709;SDS011;59402;48.396;-4.472;2022-12-24T11:44:31;19.40;;;3.22;;
41709;SDS011;59402;48.396;-4.472;2022-12-24T11:46:56;16.35;;;3.15;;
41709;SDS011;59402;48.396;-4.472;2022-12-24T11:49:26;20.30;;;2.78;;
41709;SDS011;59402;48.396;-4.472;2022-12-24T11:52:11;18.88;;;2.83;;
41709;SDS011;59402;48.396;-4.472;2022-12-24T11:57:12;18.83;;;2.13;;
41709;SDS011;59402;48.396;-4.472;2022-12-24T11:59:42;14.38;;;2.08;;
41709;SDS011;59402;48.396;-4.472;2022-12-24T12:02:29;16.02;;;2.40;;
41709;SDS011;59402;48.396;-4.472;2022-12-24T12:05:00;17.85;;;2.70;;
41709;SDS011;59402;48.396;-4.472;2022-12-24T12:07:28;12.25;;;2.55;;
41709;SDS011;59402;48.396;-4.472;2022-12-24T12:12:25;24.67;;;3.63;;
41709;SDS011;59402;48.396;-4.472;2022-12-24T12:14:53;18.63;;;2.90;;
41709;SDS011;59402;48.396;-4.472;2022-12-24T12:19:46;14.60;;;2.28;;
41709;SDS011;59402;48.396;-4.472;2022-12-24T12:22:28;16.77;;;2.33;;
41709;SDS011;59402;48.396;-4.472;2022-12-24T12:24:55;15.18;;;2.70;;
41709;SDS011;59402;48.396;-4.472;2022-12-24T12:27:26;22.08;;;3.20;;
41709;SDS011;59402;48.396;-4.472;2022-12-24T12:29:56;15.82;;;3.10;;
41709;SDS011;59402;48.396;-4.472;2022-12-24T12:32:25;16.80;;;2.60;;
41709;SDS011;59402;48.396;-4.472;2022-12-24T12:37:17;17.40;;;2.90;;
41709;SDS011;59402;48.396;-4.472;2022-12-24T12:39:45;19.20;;;2.25;;
41709;SDS011;59402;48.396;-4.472;2022-12-24T12:42:23;12.13;;;2.67;;
41709;SDS011;59402;48.396;-4.472;2022-12-24T12:57:30;15.32;;;3.17;;
41709;SDS011;59402;48.396;-4.472;2022-12-24T13:00:06;17.70;;;2.83;;
41709;SDS011;59402;48.396;-4.472;2022-12-24T13:05:23;21.02;;;4.07;;
41709;SDS011;59402;48.396;-4.472;2022-12-24T13:10:33;22.45;;;4.50;;
41709;SDS011;59402;48.396;-4.472;2022-12-24T13:13:08;18.45;;;3.55;;
41709;SDS011;59402;48.396;-4.472;2022-12-24T13:20:41;20.40;;;3.80;;
41709;SDS011;59402;48.396;-4.472;2022-12-24T13:23:13;17.67;;;4.50;;
41709;SDS011;59402;48.396;-4.472;2022-12-24T13:25:43;18.42;;;3.10;;
41709;SDS011;59402;48.396;-4.472;2022-12-24T13:30:45;14.20;;;2.38;;
41709;SDS011;59402;48.396;-4.472;2022-12-24T13:33:11;15.35;;;3.05;;
41709;SDS011;59402;48.396;-4.472;2022-12-24T13:35:37;18.83;;;3.17;;
41709;SDS011;59402;48.396;-4.472;2022-12-24T13:40:47;17.02;;;2.60;;
41709;SDS011;59402;48.396;-4.472;2022-12-24T13:43:12;14.55;;;2.95;;
41709;SDS011;59402;48.396;-4.472;2022-12-24T13:50:45;17.75;;;2.58;;
41709;SDS011;59402;48.396;-4.472;2022-12-24T13:56:19;16.85;;;2.35;;
41709;SDS011;59402;48.396;-4.472;2022-12-24T13:58:40;16.48;;;3.25;;
41709;SDS011;59402;48.396;-4.472;2022-12-24T14:01:09;16.60;;;2.53;;
41709;SDS011;59402;48.396;-4.472;2022-12-24T14:03:36;11.25;;;2.33;;
41709;SDS011;59402;48.396;-4.472;2022-12-24T14:06:09;18.90;;;2.05;;
41709;SDS011;59402;48.396;-4.472;2022-12-24T14:08:38;13.88;;;2.85;;
41709;SDS011;59402;48.396;-4.472;2022-12-24T14:11:11;13.85;;;2.30;;
41709;SDS011;59402;48.396;-4.472;2022-12-24T14:16:02;17.17;;;2.53;;
41709;SDS011;59402;48.396;-4.472;2022-12-24T14:18:29;17.25;;;3.00;;
41709;SDS011;59402;48.396;-4.472;2022-12-24T14:20:58;16.23;;;2.63;;
41709;SDS011;59402;48.396;-4.472;2022-12-24T14:25:56;16.55;;;2.13;;
41709;SDS011;59402;48.396;-4.472;2022-12-24T14:28:23;13.73;;;1.90;;
41709;SDS011;59402;48.396;-4.472;2022-12-24T14:30:59;11.43;;;2.00;;
41709;SDS011;59402;48.396;-4.472;2022-12-24T14:33:29;13.25;;;2.15;;
41709;SDS011;59402;48.396;-4.472;2022-12-24T14:35:54;15.32;;;2.35;;
41709;SDS011;59402;48.396;-4.472;2022-12-24T14:38:19;11.35;;;2.42;;
41709;SDS011;59402;48.396;-4.472;2022-12-24T14:41:35;11.77;;;2.25;;
41709;SDS011;59402;48.396;-4.472;2022-12-24T14:48:52;16.13;;;2.10;;
41709;SDS011;59402;48.396;-4.472;2022-12-24T14:56:29;14.52;;;2.10;;
41709;SDS011;59402;48.396;-4.472;2022-12-24T14:58:54;13.35;;;2.28;;
41709;SDS011;59402;48.396;-4.472;2022-12-24T15:01:24;12.52;;;2.17;;
41709;SDS011;59402;48.396;-4.472;2022-12-24T15:06:24;14.55;;;2.25;;
41709;SDS011;59402;48.396;-4.472;2022-12-24T15:08:50;17.13;;;2.25;;
41709;SDS011;59402;48.396;-4.472;2022-12-24T15:11:16;13.02;;;1.77;;
41709;SDS011;59402;48.396;-4.472;2022-12-24T15:13:47;14.52;;;1.98;;
41709;SDS011;59402;48.396;-4.472;2022-12-24T15:16:17;11.20;;;2.25;;
41709;SDS011;59402;48.396;-4.472;2022-12-24T15:18:47;11.95;;;1.67;;
41709;SDS011;59402;48.396;-4.472;2022-12-24T15:21:14;18.13;;;2.10;;
41709;SDS011;59402;48.396;-4.472;2022-12-24T15:23:44;11.77;;;2.05;;
41709;SDS011;59402;48.396;-4.472;2022-12-24T15:28:39;15.10;;;2.13;;
41709;SDS011;59402;48.396;-4.472;2022-12-24T15:31:14;11.32;;;1.95;;
41709;SDS011;59402;48.396;-4.472;2022-12-24T15:33:43;12.77;;;2.17;;
41709;SDS011;59402;48.396;-4.472;2022-12-24T15:36:08;13.20;;;2.17;;
41709;SDS011;59402;48.396;-4.472;2022-12-24T15:38:37;12.75;;;2.22;;
41709;SDS011;59402;48.396;-4.472;2022-12-24T15:41:05;10.60;;;2.10;;
41709;SDS011;59402;48.396;-4.472;2022-12-24T15:43:32;15.75;;;2.70;;
41709;SDS011;59402;48.396;-4.472;2022-12-24T15:46:02;19.38;;;2.50;;
41709;SDS011;59402;48.396;-4.472;2022-12-24T15:48:28;17.67;;;5.05;;
41709;SDS011;59402;48.396;-4.472;2022-12-24T15:50:54;12.43;;;2.85;;
41709;SDS011;59402;48.396;-4.472;2022-12-24T15:53:23;12.63;;;2.15;;
41709;SDS011;59402;48.396;-4.472;2022-12-24T15:56:05;13.77;;;2.45;;
41709;SDS011;59402;48.396;-4.472;2022-12-24T15:58:33;18.25;;;2.28;;
41709;SDS011;59402;48.396;-4.472;2022-12-24T16:01:44;14.02;;;2.08;;
41709;SDS011;59402;48.396;-4.472;2022-12-24T16:06:12;15.40;;;1.75;;
41709;SDS011;59402;48.396;-4.472;2022-12-24T16:08:38;17.60;;;2.25;;
41709;SDS011;59402;48.396;-4.472;2022-12-24T16:13:30;21.75;;;3.38;;
41709;SDS011;59402;48.396;-4.472;2022-12-24T16:18:31;13.20;;;2.20;;
41709;SDS011;59402;48.396;-4.472;2022-12-24T16:20:56;11.05;;;2.17;;
41709;SDS011;59402;48.396;-4.472;2022-12-24T16:23:23;15.60;;;3.03;;
41709;SDS011;59402;48.396;-4.472;2022-12-24T16:25:49;18.88;;;3.78;;
41709;SDS011;59402;48.396;-4.472;2022-12-24T16:28:15;18.23;;;3.92;;
41709;SDS011;59402;48.396;-4.472;2022-12-24T16:30:42;17.58;;;3.35;;
41709;SDS011;59402;48.396;-4.472;2022-12-24T16:33:14;11.05;;;3.00;;
41709;SDS011;59402;48.396;-4.472;2022-12-24T16:35:40;11.63;;;3.10;;
41709;SDS011;59402;48.396;-4.472;2022-12-24T16:38:05;18.25;;;3.38;;
41709;SDS011;59402;48.396;-4.472;2022-12-24T16:40:31;18.58;;;5.20;;
41709;SDS011;59402;48.396;-4.472;2022-12-24T16:42:56;14.98;;;3.30;;